Terminal Aerodrome Forecast
Issued by NWS

Home | Current Version | Previous Version | Text Only | Print | Product List | Glossary On
Versions: 1 2 3 4 5 6 7 8 9 10 11 12 13 14 15 16 17 18 19 20 21 22 23 24 25 26 27 28 29 30 31 32 33 34 35 36 37 38 39 40 41 42 43 44 45 46 47 48 49
000
FTUS42 KGSP 190411 AAA
TAFHKY
TAF AMD
KHKY 190411Z 1904/1924 00000KT P6SM VCSH BKN050
     FM190600 11004KT 5SM BR VCSH BKN025
     FM190800 09004KT 4SM BR VCSH OVC012
     FM191000 10007KT 3SM -SHRA BR OVC006
     FM191600 12007KT 2SM SHRA BR OVC004 PROB30 1916/1922 4SM TSRA
      OVC008CB=

USA.gov is the U.S. government's official web portal to all federal, state and local government web resources and services.